Time;durP1;ratioP1;P1;durP2;ratioP2;P2;SDS_P1;SDS_P2;PMS_P1;PMS_P2;Temp;Humidity;BMP_temperature;BMP_pressure;BME280_temperature;BME280_humidity;BME280_pressure;Samples;Min_cycle;Max_cycle;Signal;HPM_P1;HPM_P2
2022/09/06 00:01:08;;;;;;;7.70;6.33;;;;;;;10.49;77.62;101421.44;1744748;82;20980;-84
2022/09/06 00:03:35;;;;;;;8.63;6.30;;;;;;;10.44;77.54;101422.12;1744911;81;21204;-84
2022/09/06 00:06:11;;;;;;;7.95;6.33;;;;;;;10.39;77.56;101422.80;1745145;82;20953;-83
2022/09/06 00:08:38;;;;;;;8.60;6.95;;;;;;;10.34;77.67;101418.61;1745862;81;20869;-84
2022/09/06 00:11:06;;;;;;;11.50;8.00;;;;;;;10.33;77.84;101417.36;1745006;81;20948;-85
2022/09/06 00:13:33;;;;;;;12.70;8.08;;;;;;;10.32;77.98;101410.44;1744799;81;20964;-85
2022/09/06 00:16:08;;;;;;;10.95;7.78;;;;;;;10.32;78.16;101407.34;1759056;81;21770;-85
2022/09/06 00:18:36;;;;;;;11.22;6.15;;;;;;;10.34;78.29;101406.81;1745095;81;25592;-85
2022/09/06 00:21:04;;;;;;;10.08;6.40;;;;;;;10.35;78.38;101405.88;1744769;82;20940;-85
2022/09/06 00:23:32;;;;;;;9.40;7.00;;;;;;;10.37;78.47;101400.58;1749667;80;20956;-84
2022/09/06 00:26:07;;;;;;;7.33;6.58;;;;;;;10.41;78.55;101406.54;1758121;81;20952;-84
2022/09/06 00:28:33;;;;;;;7.92;7.10;;;;;;;10.42;78.56;101403.83;1758098;80;21130;-85
2022/09/06 00:31:13;;;;;;;10.48;7.03;;;;;;;10.46;78.56;101406.70;1757869;81;20912;-86
2022/09/06 00:33:39;;;;;;;16.75;8.25;;;;;;;10.49;78.38;101399.14;1757942;80;20927;-85
2022/09/06 00:36:06;;;;;;;8.25;6.42;;;;;;;10.52;78.29;101400.33;1757944;81;20928;-86
2022/09/06 00:38:33;;;;;;;7.67;6.37;;;;;;;10.55;78.23;101401.48;1758054;81;21003;-85
2022/09/06 00:41:00;;;;;;;9.50;7.45;;;;;;;10.55;78.18;101398.39;1758040;81;21895;-85
2022/09/06 00:43:26;;;;;;;10.20;6.55;;;;;;;10.56;78.13;101398.80;1757851;81;20923;-85
2022/09/06 00:45:53;;;;;;;8.88;6.17;;;;;;;10.58;78.13;101400.02;1758015;81;21012;-85
2022/09/06 00:48:19;;;;;;;7.58;6.28;;;;;;;10.60;78.19;101394.70;1758053;81;21394;-85
2022/09/06 00:50:47;;;;;;;9.55;6.87;;;;;;;10.60;78.15;101398.17;1741194;81;20852;-85
2022/09/06 00:53:13;;;;;;;7.03;6.22;;;;;;;10.60;78.05;101402.11;1758029;81;21096;-84
2022/09/06 00:55:41;;;;;;;7.40;6.58;;;;;;;10.59;77.99;101399.11;1757813;81;20877;-84
2022/09/06 00:58:08;;;;;;;8.28;6.60;;;;;;;10.57;78.03;101394.39;1757882;80;21358;-84
2022/09/06 01:00:35;;;;;;;9.73;6.28;;;;;;;10.56;78.03;101392.23;1758069;81;21347;-84
2022/09/06 01:03:02;;;;;;;7.03;6.03;;;;;;;10.58;78.09;101390.83;1757956;80;20972;-85
2022/09/06 01:05:43;;;;;;;6.87;5.92;;;;;;;10.59;78.14;101391.23;1716653;81;21342;-85
2022/09/06 01:08:21;;;;;;;9.10;6.15;;;;;;;10.60;78.22;101386.84;1744071;81;20889;-85
2022/09/06 01:11:08;;;;;;;8.75;6.92;;;;;;;10.61;78.26;101392.48;1758292;80;21439;-85
2022/09/06 01:14:04;;;;;;;11.38;6.55;;;;;;;10.61;78.26;101390.70;1760935;80;20968;-85
2022/09/06 01:16:45;;;;;;;8.25;6.37;;;;;;;10.62;78.23;101391.08;1758085;81;20967;-86
2022/09/06 01:19:29;;;;;;;6.65;5.70;;;;;;;10.64;78.23;101398.42;1750365;81;21504;-84
2022/09/06 01:22:19;;;;;;;7.05;6.35;;;;;;;10.64;78.26;101393.17;1758247;80;20920;-85
2022/09/06 01:25:43;;;;;;;6.55;5.92;;;;;;;10.64;78.33;101392.33;1744364;82;21414;-86
2022/09/06 01:28:45;;;;;;;7.85;6.42;;;;;;;10.67;78.27;101400.91;1750103;80;21418;-85
2022/09/06 01:31:54;;;;;;;9.98;6.17;;;;;;;10.68;78.40;101398.67;1750652;80;20974;-85
2022/09/06 01:34:26;;;;;;;7.42;5.65;;;;;;;10.72;78.47;101394.98;1751138;80;21138;-86
2022/09/06 01:37:00;;;;;;;8.05;6.08;;;;;;;10.76;78.40;101400.47;1750366;81;21365;-84
2022/09/06 01:39:29;;;;;;;11.30;5.20;;;;;;;10.79;78.34;101394.22;1750190;81;20848;-85
2022/09/06 01:41:57;;;;;;;6.22;5.33;;;;;;;10.82;78.40;101399.30;1750150;81;20923;-84
2022/09/06 01:44:25;;;;;;;6.85;5.53;;;;;;;10.86;78.26;101402.17;1750244;80;20883;-86
2022/09/06 01:47:14;;;;;;;6.03;4.92;;;;;;;10.89;78.14;101402.02;1750374;81;21105;-85
2022/09/06 01:50:04;;;;;;;4.85;4.25;;;;;;;10.92;78.06;101405.81;1748216;81;20951;-85
2022/09/06 01:53:08;;;;;;;6.08;5.47;;;;;;;10.94;77.94;101403.97;1750488;82;20959;-85
2022/09/06 01:56:01;;;;;;;8.63;6.10;;;;;;;10.95;77.98;101412.69;1752317;81;20939;-85
2022/09/06 01:59:03;;;;;;;8.78;5.12;;;;;;;10.98;78.00;101406.84;1751977;82;20881;-84
2022/09/06 02:01:58;;;;;;;8.68;5.87;;;;;;;10.97;77.76;101401.66;1750279;82;21235;-85
2022/09/06 02:04:41;;;;;;;7.97;4.85;;;;;;;10.99;77.87;101402.43;1750380;81;20927;-84
2022/09/06 02:07:15;;;;;;;11.38;5.58;;;;;;;11.03;77.75;101403.98;1750178;81;20883;-84
2022/09/06 02:09:42;;;;;;;8.05;5.95;;;;;;;11.07;77.65;101400.28;1750276;80;21045;-84
2022/09/06 02:12:12;;;;;;;7.22;5.10;;;;;;;11.11;77.57;101402.28;1749966;81;20875;-84
2022/09/06 02:14:56;;;;;;;5.75;4.75;;;;;;;11.15;77.40;101402.05;1750354;82;21224;-86
2022/09/06 02:17:28;;;;;;;6.00;5.40;;;;;;;11.17;77.24;101394.95;1750160;80;20929;-85
2022/09/06 02:19:59;;;;;;;6.45;5.67;;;;;;;11.20;77.15;101404.44;1750337;81;20920;-84
2022/09/06 02:22:29;;;;;;;6.83;5.20;;;;;;;11.15;77.27;101399.42;1749899;81;21349;-85
2022/09/06 02:24:56;;;;;;;7.17;6.47;;;;;;;11.16;77.30;101399.83;1746333;80;20916;-85
2022/09/06 02:27:22;;;;;;;6.55;5.87;;;;;;;11.20;77.48;101403.13;1744783;81;21853;-85
2022/09/06 02:29:49;;;;;;;6.17;5.08;;;;;;;11.25;77.61;101402.89;1744577;81;20861;-84
2022/09/06 02:32:23;;;;;;;8.63;5.90;;;;;;;11.28;77.65;101394.41;1759574;81;20949;-85
2022/09/06 02:34:51;;;;;;;5.95;5.35;;;;;;;11.31;77.59;101396.88;1744854;81;21451;-84
2022/09/06 02:37:18;;;;;;;11.73;5.80;;;;;;;11.33;77.46;101393.70;1745036;81;20917;-85
2022/09/06 02:39:44;;;;;;;5.00;4.50;;;;;;;11.36;77.29;101397.95;1744645;81;21146;-84
2022/09/06 02:42:12;;;;;;;7.92;6.92;;;;;;;11.37;77.28;101403.13;1744638;80;21078;-85
2022/09/06 02:44:39;;;;;;;7.92;5.58;;;;;;;11.38;77.25;101398.28;1745294;82;20854;-85
2022/09/06 02:47:05;;;;;;;6.25;5.65;;;;;;;11.39;77.20;101397.81;1744588;81;20960;-85
2022/09/06 02:49:33;;;;;;;7.30;6.00;;;;;;;11.40;77.18;101403.44;1744845;82;20937;-86
2022/09/06 02:51:59;;;;;;;6.75;5.37;;;;;;;11.40;77.27;101406.06;1744728;81;21240;-86
2022/09/06 02:54:26;;;;;;;8.15;5.03;;;;;;;11.43;77.34;101413.80;1744904;80;20928;-85
2022/09/06 02:56:52;;;;;;;7.58;4.78;;;;;;;11.43;77.16;101421.69;1744947;81;21473;-87
2022/09/06 02:59:19;;;;;;;7.12;5.78;;;;;;;11.43;77.12;101423.44;1744996;80;20924;-87
2022/09/06 03:01:46;;;;;;;6.45;5.15;;;;;;;11.43;76.99;101420.81;1734198;82;20937;-88
2022/09/06 03:04:12;;;;;;;6.37;4.80;;;;;;;11.41;77.06;101426.16;1744747;81;21324;-86
2022/09/06 03:06:39;;;;;;;6.80;4.97;;;;;;;11.42;77.11;101426.53;1744676;82;20885;-86
2022/09/06 03:09:06;;;;;;;5.72;4.60;;;;;;;11.40;77.06;101428.38;1744702;82;20889;-86
2022/09/06 03:11:32;;;;;;;10.43;4.90;;;;;;;11.40;77.03;101434.52;1744626;81;21628;-84
2022/09/06 03:13:58;;;;;;;6.80;5.15;;;;;;;11.41;76.98;101441.45;1744966;80;21335;-85
2022/09/06 03:16:28;;;;;;;9.15;5.05;;;;;;;11.42;76.81;101446.23;1744694;81;21207;-84
2022/09/06 03:18:54;;;;;;;7.90;4.80;;;;;;;11.40;76.75;101435.83;1744660;82;21469;-86
2022/09/06 03:21:21;;;;;;;10.23;5.53;;;;;;;11.38;76.76;101446.87;1744695;81;20933;-86
2022/09/06 03:23:48;;;;;;;7.92;5.33;;;;;;;11.37;76.82;101451.72;1744441;80;20873;-86
2022/09/06 03:26:15;;;;;;;8.68;5.12;;;;;;;11.37;76.81;101453.03;1744707;80;20944;-85
2022/09/06 03:28:42;;;;;;;6.15;5.20;;;;;;;11.40;76.70;101461.21;1744637;81;21220;-86
2022/09/06 03:31:09;;;;;;;8.63;5.20;;;;;;;11.44;76.70;101461.92;1744862;81;20885;-87
2022/09/06 03:33:35;;;;;;;9.48;4.85;;;;;;;11.46;76.79;101458.29;1744670;81;20949;-85
2022/09/06 03:36:02;;;;;;;5.00;4.47;;;;;;;11.49;77.07;101460.75;1745012;81;20963;-85
2022/09/06 03:38:29;;;;;;;9.48;6.17;;;;;;;11.51;76.95;101463.31;1745179;82;20858;-84
2022/09/06 03:40:56;;;;;;;8.48;5.58;;;;;;;11.53;76.91;101464.08;1734384;82;21815;-83
2022/09/06 03:43:23;;;;;;;6.12;5.17;;;;;;;11.57;76.72;101470.41;1744601;80;20989;-85
2022/09/06 03:45:52;;;;;;;6.78;5.62;;;;;;;11.59;76.56;101476.44;1744669;81;20920;-86
2022/09/06 03:48:21;;;;;;;5.35;4.40;;;;;;;11.62;76.49;101474.13;1744891;81;21410;-85
2022/09/06 03:50:49;;;;;;;9.78;5.28;;;;;;;11.63;76.21;101474.52;1744762;81;20893;-86
2022/09/06 03:53:16;;;;;;;5.80;4.03;;;;;;;11.66;76.01;101484.02;1744968;81;21148;-85
2022/09/06 03:55:46;;;;;;;5.45;4.72;;;;;;;11.67;75.92;101487.02;1746488;81;20979;-85
2022/09/06 03:58:12;;;;;;;6.65;4.60;;;;;;;11.68;75.76;101485.64;1746024;81;20940;-84
2022/09/06 04:00:40;;;;;;;6.03;5.22;;;;;;;11.68;75.59;101486.95;1746386;81;20940;-87
2022/09/06 04:03:06;;;;;;;9.35;4.87;;;;;;;11.69;75.35;101489.11;1745179;81;20869;-85
2022/09/06 04:05:34;;;;;;;6.22;4.42;;;;;;;11.71;75.29;101489.88;1744667;82;21194;-85
2022/09/06 04:08:01;;;;;;;8.78;5.08;;;;;;;11.73;75.48;101490.19;1759065;81;20861;-85
2022/09/06 04:10:28;;;;;;;7.22;4.60;;;;;;;11.76;75.33;101499.69;1744656;81;20901;-85
2022/09/06 04:12:55;;;;;;;6.25;4.60;;;;;;;11.79;75.16;101502.18;1744701;81;20948;-86
2022/09/06 04:15:22;;;;;;;6.08;4.90;;;;;;;11.78;74.96;101501.34;1744636;81;20971;-85
2022/09/06 04:17:48;;;;;;;5.83;5.20;;;;;;;11.82;75.54;101503.33;1744875;82;21771;-85
2022/09/06 04:20:16;;;;;;;6.28;4.50;;;;;;;11.89;75.37;101498.64;1744530;80;21337;-85
2022/09/06 04:22:43;;;;;;;6.58;5.15;;;;;;;11.94;74.99;101505.81;1744812;80;20909;-85
2022/09/06 04:25:10;;;;;;;5.45;4.90;;;;;;;11.98;74.62;101509.98;1744657;81;20905;-86
2022/09/06 04:27:36;;;;;;;6.30;4.15;;;;;;;11.97;74.21;101509.14;1745017;82;20928;-85
2022/09/06 04:30:04;;;;;;;4.35;3.95;;;;;;;11.97;74.13;101513.09;1744651;82;21183;-85
2022/09/06 04:32:31;;;;;;;13.43;6.22;;;;;;;11.96;73.97;101511.84;1744838;81;21023;-85
2022/09/06 04:34:58;;;;;;;4.92;4.42;;;;;;;11.95;73.91;101509.69;1744733;80;21346;-85
2022/09/06 04:37:24;;;;;;;7.15;4.50;;;;;;;11.93;73.93;101510.70;1744630;81;20952;-86
2022/09/06 04:39:51;;;;;;;4.25;3.85;;;;;;;11.90;73.84;101514.34;1744879;80;21483;-85
2022/09/06 04:42:17;;;;;;;6.28;4.15;;;;;;;11.88;74.08;101512.72;1744863;81;21221;-85
2022/09/06 04:44:44;;;;;;;3.85;3.55;;;;;;;11.90;74.16;101514.81;1744623;81;20929;-85
2022/09/06 04:47:13;;;;;;;6.80;4.47;;;;;;;11.94;74.38;101513.70;1744830;81;20889;-84
2022/09/06 04:49:41;;;;;;;8.55;4.45;;;;;;;12.02;74.12;101516.32;1745059;82;20905;-87
2022/09/06 04:52:08;;;;;;;6.47;4.75;;;;;;;12.22;74.24;101517.91;1744872;81;21041;-87
2022/09/06 04:54:34;;;;;;;3.62;3.30;;;;;;;12.61;73.89;101512.78;1745187;81;21154;-86
2022/09/06 04:57:01;;;;;;;5.03;3.58;;;;;;;13.08;72.95;101512.41;1744914;82;21024;-86
2022/09/06 04:59:27;;;;;;;3.55;3.25;;;;;;;13.59;71.11;101517.46;1744781;81;20928;-84
2022/09/06 05:01:54;;;;;;;6.08;3.25;;;;;;;14.17;69.37;101519.27;1744669;81;20893;-86
2022/09/06 05:04:21;;;;;;;5.62;2.87;;;;;;;14.79;67.74;101522.94;1745081;81;20941;-84
2022/09/06 05:06:48;;;;;;;5.28;3.45;;;;;;;15.54;66.07;101521.20;1744830;81;22135;-84
2022/09/06 05:09:15;;;;;;;6.53;2.98;;;;;;;16.37;63.74;101519.53;1745126;81;21411;-87
2022/09/06 05:11:43;;;;;;;2.65;2.45;;;;;;;17.18;60.67;101522.14;1744868;81;21398;-86
2022/09/06 05:14:10;;;;;;;4.35;2.92;;;;;;;17.89;57.97;101522.20;1744756;81;20896;-86
2022/09/06 05:16:36;;;;;;;5.17;2.52;;;;;;;18.59;55.74;101527.33;1745141;81;20920;-88
2022/09/06 05:19:03;;;;;;;3.70;2.98;;;;;;;19.23;53.40;101516.45;1745059;82;21489;-89
2022/09/06 05:21:29;;;;;;;4.08;2.42;;;;;;;19.76;51.71;101516.48;1744834;81;21324;-89
2022/09/06 05:23:56;;;;;;;4.25;2.40;;;;;;;20.29;49.77;101515.02;1745085;80;20924;-88
2022/09/06 05:26:24;;;;;;;2.95;2.33;;;;;;;20.78;48.31;101516.55;1744824;80;21041;-88
2022/09/06 05:28:50;;;;;;;2.95;2.50;;;;;;;21.21;46.06;101514.05;1744965;81;20873;-86
2022/09/06 05:31:26;;;;;;;5.35;2.22;;;;;;;21.44;44.82;101511.13;1745174;80;21183;-87
2022/09/06 05:33:54;;;;;;;3.00;2.33;;;;;;;21.63;43.93;101511.12;1744899;81;20901;-87
2022/09/06 05:36:22;;;;;;;2.27;2.02;;;;;;;22.03;43.38;101514.53;1746029;82;21004;-88
2022/09/06 05:38:53;;;;;;;2.08;1.70;;;;;;;22.31;42.73;101513.62;1745394;81;21414;-87
2022/09/06 05:41:20;;;;;;;1.60;1.50;;;;;;;22.58;41.71;101516.46;1745214;81;20885;-87
2022/09/06 05:43:47;;;;;;;4.10;3.70;;;;;;;22.90;40.89;101507.95;1745106;81;21110;-90
2022/09/06 05:46:14;;;;;;;2.95;1.92;;;;;;;23.24;40.28;101506.00;1744903;81;20972;-87
2022/09/06 05:48:40;;;;;;;3.30;1.50;;;;;;;23.58;39.47;101510.12;1745117;81;20948;-88
2022/09/06 05:51:14;;;;;;;3.08;1.92;;;;;;;23.90;38.80;101508.70;1745186;81;20909;-87
2022/09/06 05:53:42;;;;;;;4.92;4.53;;;;;;;24.20;37.94;101515.42;1745773;81;21363;-89
2022/09/06 05:56:11;;;;;;;1.25;1.02;;;;;;;24.43;36.44;101513.52;1745715;81;21232;-87
2022/09/06 05:58:37;;;;;;;4.50;1.70;;;;;;;24.37;36.40;101514.51;1745895;82;20889;-86
2022/09/06 06:01:09;;;;;;;4.20;1.10;;;;;;;24.51;36.57;101517.61;1747870;81;20869;-89
2022/09/06 06:03:35;;;;;;;3.25;1.20;;;;;;;24.81;35.82;101518.39;1748671;79;21051;-88
2022/09/06 06:06:02;;;;;;;2.20;1.37;;;;;;;25.13;34.86;101523.98;1745097;82;20932;-87
2022/09/06 06:08:29;;;;;;;1.55;1.05;;;;;;;25.25;33.83;101512.45;1744954;81;21221;-88
2022/09/06 06:10:59;;;;;;;2.75;1.55;;;;;;;25.21;33.68;101519.98;1745055;81;21008;-88
2022/09/06 06:13:27;;;;;;;2.08;1.30;;;;;;;25.22;33.75;101525.20;1745011;81;20924;-87
2022/09/06 06:15:54;;;;;;;0.68;0.65;;;;;;;25.41;33.69;101521.36;1745511;80;20968;-88
2022/09/06 06:18:22;;;;;;;1.80;1.27;;;;;;;25.53;32.70;101524.55;1745348;80;20869;-88
2022/09/06 06:20:48;;;;;;;1.70;0.90;;;;;;;25.42;33.20;101526.22;1745723;81;21102;-86
2022/09/06 06:23:15;;;;;;;2.45;1.15;;;;;;;25.62;32.87;101522.70;1745452;81;20945;-88
2022/09/06 06:25:42;;;;;;;3.45;0.93;;;;;;;25.93;32.87;101528.74;1751402;81;21011;-88
2022/09/06 06:28:09;;;;;;;0.90;0.90;;;;;;;26.25;32.23;101526.46;1758760;81;20939;-88
2022/09/06 06:30:35;;;;;;;2.20;0.82;;;;;;;26.42;31.31;101530.77;1758789;80;20920;-88
2022/09/06 06:33:02;;;;;;;0.90;0.90;;;;;;;26.44;30.75;101527.92;1758799;81;21161;-89
2022/09/06 06:35:29;;;;;;;2.77;1.40;;;;;;;26.41;30.42;101530.45;1758848;81;21406;-89
2022/09/06 06:37:55;;;;;;;0.68;0.68;;;;;;;26.59;30.71;101526.20;1758760;80;20952;-88
2022/09/06 06:40:22;;;;;;;1.95;0.80;;;;;;;26.91;30.58;101522.17;1758957;80;21012;-88
2022/09/06 06:42:49;;;;;;;3.02;1.00;;;;;;;27.26;30.18;101524.31;1759286;81;20932;-87
2022/09/06 06:45:15;;;;;;;1.57;0.65;;;;;;;27.60;29.60;101520.32;1758946;80;21102;-88
2022/09/06 06:47:42;;;;;;;1.20;0.72;;;;;;;27.78;28.83;101524.02;1758712;80;20980;-89
2022/09/06 06:50:09;;;;;;;0.68;0.68;;;;;;;27.75;28.95;101523.05;1760562;78;20928;-87
2022/09/06 06:52:36;;;;;;;3.22;0.62;;;;;;;27.93;28.63;101522.73;1760308;78;20958;-89
2022/09/06 06:55:04;;;;;;;1.27;0.70;;;;;;;28.15;27.98;101527.73;1759079;81;20959;-89
2022/09/06 06:57:30;;;;;;;9.38;8.55;;;;;;;28.03;27.20;101525.16;1759674;81;21278;-90
2022/09/06 06:59:57;;;;;;;2.50;1.67;;;;;;;28.03;27.29;101525.16;1759871;81;20872;-89
2022/09/06 07:02:24;;;;;;;3.12;0.68;;;;;;;27.99;27.14;101530.09;1759943;81;20990;-91
2022/09/06 07:04:50;;;;;;;1.30;0.70;;;;;;;27.98;27.36;101524.36;1760032;81;20947;-90
2022/09/06 07:07:17;;;;;;;1.85;0.50;;;;;;;28.10;27.49;101520.68;1758791;81;20920;-89
2022/09/06 07:09:43;;;;;;;2.37;0.88;;;;;;;28.18;26.36;101519.77;1759008;81;21746;-87
2022/09/06 07:12:10;;;;;;;0.70;0.70;;;;;;;27.87;26.08;101525.64;1741465;81;21072;-90
2022/09/06 07:14:36;;;;;;;2.05;0.60;;;;;;;27.59;26.43;101519.14;1758945;80;21009;-88
2022/09/06 07:17:03;;;;;;;0.40;0.40;;;;;;;27.60;27.18;101518.14;1758693;81;21015;-87
2022/09/06 07:19:29;;;;;;;1.32;0.98;;;;;;;27.67;26.65;101517.73;1759424;81;20877;-90
2022/09/06 07:21:57;;;;;;;1.10;0.40;;;;;;;27.61;26.75;101516.59;1759254;80;21399;-89
2022/09/06 07:24:24;;;;;;;0.80;0.57;;;;;;;27.63;26.10;101511.86;1759399;81;20971;-87
2022/09/06 07:26:50;;;;;;;0.47;0.33;;;;;;;27.88;26.58;101511.64;1758586;80;20931;-88
2022/09/06 07:29:16;;;;;;;2.62;0.30;;;;;;;27.82;26.05;101515.07;1758767;80;20928;-88
2022/09/06 07:31:43;;;;;;;0.40;0.40;;;;;;;27.96;26.08;101515.61;1759039;81;20964;-88
2022/09/06 07:34:10;;;;;;;1.77;1.67;;;;;;;28.08;26.23;101514.63;1758364;81;21159;-89
2022/09/06 07:36:36;;;;;;;1.22;0.50;;;;;;;28.20;25.64;101513.67;1758606;81;20892;-88
2022/09/06 07:39:03;;;;;;;1.47;0.65;;;;;;;28.10;25.37;101509.41;1758450;81;20967;-87
2022/09/06 07:41:32;;;;;;;0.42;0.42;;;;;;;27.84;25.16;101511.68;1759029;80;20885;-86
2022/09/06 07:43:58;;;;;;;7.03;0.50;;;;;;;27.53;25.31;101503.73;1759791;81;20888;-88
2022/09/06 07:46:25;;;;;;;0.85;0.40;;;;;;;27.31;25.85;101512.99;1759635;81;21124;-87
2022/09/06 07:48:52;;;;;;;2.00;0.37;;;;;;;26.96;25.97;101512.53;1758314;81;20955;-87
2022/09/06 07:51:25;;;;;;;2.45;0.33;;;;;;;26.71;26.48;101516.39;1758752;81;20849;-87
2022/09/06 07:53:51;;;;;;;0.68;0.40;;;;;;;26.79;26.73;101517.67;1757951;80;20905;-87
2022/09/06 07:56:19;;;;;;;0.60;0.60;;;;;;;26.87;26.25;101521.67;1758730;81;20876;-87
2022/09/06 07:58:45;;;;;;;2.20;0.47;;;;;;;27.12;26.05;101519.66;1758092;81;21116;-86
2022/09/06 08:01:19;;;;;;;0.40;0.20;;;;;;;27.45;25.50;101512.70;1758784;81;21484;-88
2022/09/06 08:03:46;;;;;;;5.60;5.15;;;;;;;27.66;25.66;101510.16;1758769;80;20920;-89
2022/09/06 08:06:12;;;;;;;2.20;1.67;;;;;;;27.49;24.88;101505.94;1758440;80;21006;-87
2022/09/06 08:08:39;;;;;;;22.25;20.23;;;;;;;26.86;25.42;101510.08;1758638;81;20920;-87
2022/09/06 08:11:06;;;;;;;10.58;9.50;;;;;;;26.33;26.37;101517.03;1758278;81;21102;-90
2022/09/06 08:13:34;;;;;;;11.15;0.80;;;;;;;25.98;26.85;101516.45;1758374;81;21456;-88
2022/09/06 08:16:05;;;;;;;0.40;0.40;;;;;;;26.03;27.08;101509.22;1758024;81;20912;-88
2022/09/06 08:18:33;;;;;;;8.20;2.15;;;;;;;26.31;26.57;101504.26;1758999;81;20900;-86
2022/09/06 08:21:11;;;;;;;0.72;0.42;;;;;;;26.40;26.76;101504.55;1758680;80;21061;-86
2022/09/06 08:23:41;;;;;;;0.30;0.30;;;;;;;26.38;26.92;101507.09;1758900;81;21207;-87
2022/09/06 08:26:10;;;;;;;0.37;0.33;;;;;;;26.02;26.78;101504.86;1764049;80;20916;-87
2022/09/06 08:28:37;;;;;;;0.37;0.10;;;;;;;25.82;27.10;101494.96;1753156;81;20884;-88
2022/09/06 08:31:09;;;;;;;0.78;0.20;;;;;;;25.73;27.56;101495.48;1753429;81;20945;-88
2022/09/06 08:33:37;;;;;;;1.07;0.60;;;;;;;25.52;27.21;101487.09;1753786;81;21098;-87
2022/09/06 08:36:04;;;;;;;4.33;0.62;;;;;;;25.26;27.71;101487.27;1753011;81;22130;-88
2022/09/06 08:40:43;;;;;;;0.33;0.10;;;;;;;24.81;28.21;101481.30;1823720;77;22731;-91
2022/09/06 08:43:17;;;;;;;0.80;0.40;;;;;;;24.40;28.49;101480.66;1780964;78;21377;-87
2022/09/06 08:45:44;;;;;;;0.20;0.20;;;;;;;24.45;28.71;101473.97;1754152;80;21223;-87
2022/09/06 08:48:10;;;;;;;5.97;5.25;;;;;;;24.54;28.84;101468.49;1747425;81;21432;-90
2022/09/06 08:50:37;;;;;;;2.37;2.20;;;;;;;24.86;28.73;101474.97;1743896;80;21417;-90
2022/09/06 08:53:06;;;;;;;14.87;13.32;;;;;;;24.76;27.83;101470.23;1816482;78;21508;-87
2022/09/06 08:55:43;;;;;;;1.90;0.72;;;;;;;24.39;28.27;101472.29;1809459;78;20836;-87
2022/09/06 08:58:38;;;;;;;0.50;0.50;;;;;;;24.02;28.85;101465.91;1804238;78;21251;-87
2022/09/06 09:01:13;;;;;;;0.55;0.20;;;;;;;23.62;29.41;101461.95;1802560;78;20959;-88
2022/09/06 09:03:41;;;;;;;0.40;0.20;;;;;;;23.13;30.05;101469.61;1797827;78;20915;-88
2022/09/06 09:06:09;;;;;;;4.35;0.78;;;;;;;22.81;30.54;101468.27;1792805;78;21061;-88
2022/09/06 09:09:04;;;;;;;1.62;0.47;;;;;;;22.73;30.66;101462.83;1808301;78;21627;-88
2022/09/06 09:11:32;;;;;;;0.33;0.30;;;;;;;22.87;31.01;101450.25;1800666;78;21140;-90
2022/09/06 09:14:25;;;;;;;0.50;0.40;;;;;;;23.02;30.63;101449.77;1810675;78;20852;-88
2022/09/06 09:16:52;;;;;;;3.00;0.45;;;;;;;23.04;30.96;101456.64;1811951;78;20951;-88
2022/09/06 09:19:18;;;;;;;0.30;0.30;;;;;;;23.09;30.74;101461.53;1814011;78;20931;-87
2022/09/06 09:21:45;;;;;;;0.35;0.20;;;;;;;23.21;30.60;101460.32;1816397;78;20899;-88
2022/09/06 09:24:14;;;;;;;0.72;0.20;;;;;;;23.41;30.24;101458.31;1812769;78;21412;-89
2022/09/06 09:26:55;;;;;;;0.20;0.20;;;;;;;23.48;29.99;101459.36;1804469;78;20935;-87
2022/09/06 09:29:22;;;;;;;2.58;0.57;;;;;;;23.33;29.77;101452.38;1806840;78;20860;-88
2022/09/06 09:31:51;;;;;;;0.60;0.40;;;;;;;22.95;30.12;101458.88;1817128;78;20824;-88
2022/09/06 09:34:36;;;;;;;2.62;0.42;;;;;;;22.58;30.42;101458.48;1807262;78;20907;-88
2022/09/06 09:37:22;;;;;;;1.35;0.20;;;;;;;22.21;31.51;101463.84;1821889;78;21170;-88
2022/09/06 09:39:52;;;;;;;0.88;0.20;;;;;;;21.87;32.13;101467.90;1817098;78;20813;-88
2022/09/06 09:42:33;;;;;;;0.68;0.37;;;;;;;21.65;31.26;101465.57;1783933;78;20907;-89
2022/09/06 09:44:59;;;;;;;5.80;5.30;;;;;;;21.59;32.29;101465.66;1808868;78;20888;-86
2022/09/06 09:47:30;;;;;;;0.82;0.75;;;;;;;21.52;31.92;101456.52;1822870;78;20821;-88
2022/09/06 09:49:56;;;;;;;0.53;0.40;;;;;;;21.42;31.75;101469.05;1816619;78;21137;-89
2022/09/06 09:52:29;;;;;;;1.95;0.30;;;;;;;21.24;32.63;101467.06;1813210;78;20899;-88
2022/09/06 09:55:04;;;;;;;1.47;0.40;;;;;;;21.08;32.88;101468.97;1814430;78;20995;-87
2022/09/06 09:57:33;;;;;;;0.42;0.20;;;;;;;21.03;32.69;101468.55;1802861;78;21528;-88
2022/09/06 10:00:00;;;;;;;0.55;0.20;;;;;;;21.33;32.91;101474.22;1810109;78;20820;-88
2022/09/06 10:02:40;;;;;;;0.70;0.30;;;;;;;21.87;32.14;101469.23;1816393;78;21235;-88
2022/09/06 10:05:18;;;;;;;1.05;0.33;;;;;;;22.05;31.71;101473.82;1819874;78;21401;-87
2022/09/06 10:07:53;;;;;;;1.82;0.30;;;;;;;22.06;31.41;101473.69;1819814;78;20889;-88
2022/09/06 10:10:26;;;;;;;0.50;0.30;;;;;;;21.93;31.35;101472.66;1806500;78;20915;-88
2022/09/06 10:13:13;;;;;;;0.75;0.55;;;;;;;21.59;31.62;101478.15;1813991;78;20891;-88
2022/09/06 10:15:42;;;;;;;0.75;0.23;;;;;;;21.30;32.43;101476.34;1797890;78;22177;-87
2022/09/06 10:18:31;;;;;;;0.30;0.23;;;;;;;21.16;33.07;101478.08;1805380;78;21338;-87
2022/09/06 10:21:12;;;;;;;1.35;0.20;;;;;;;21.05;32.91;101475.89;1772298;78;20869;-87
2022/09/06 10:23:59;;;;;;;1.45;0.20;;;;;;;21.05;32.80;101471.89;1812767;78;20932;-85
2022/09/06 10:26:52;;;;;;;0.45;0.35;;;;;;;21.05;32.92;101478.56;1810056;78;20930;-86
2022/09/06 10:29:27;;;;;;;10.18;8.00;;;;;;;21.08;33.18;101480.13;1814833;78;20955;-87
2022/09/06 10:32:39;;;;;;;62.05;50.20;;;;;;;21.23;33.42;101473.87;1824393;78;21085;-89
2022/09/06 10:35:28;;;;;;;11.85;9.55;;;;;;;21.26;33.27;101464.27;1825251;78;20932;-87
2022/09/06 10:38:26;;;;;;;10.30;7.75;;;;;;;21.17;32.42;101465.95;1800700;78;20904;-88
2022/09/06 10:41:28;;;;;;;3.25;2.85;;;;;;;20.88;32.45;101461.94;1808503;78;20865;-87
2022/09/06 10:44:01;;;;;;;0.85;0.40;;;;;;;20.58;33.01;101464.19;1824921;78;21182;-87
2022/09/06 10:46:27;;;;;;;0.85;0.20;;;;;;;20.21;33.10;101465.59;1804127;78;20978;-87
2022/09/06 10:48:54;;;;;;;1.75;0.30;;;;;;;20.18;34.13;101469.00;1824511;78;20940;-87
2022/09/06 10:51:37;;;;;;;1.37;0.20;;;;;;;20.20;33.84;101460.39;1823452;78;21204;-86
2022/09/06 10:54:11;;;;;;;3.05;0.23;;;;;;;20.21;33.85;101470.92;1818063;78;21025;-86
2022/09/06 10:56:59;;;;;;;0.20;0.20;;;;;;;20.17;33.80;101470.83;1815041;78;21165;-88
2022/09/06 10:59:49;;;;;;;0.50;0.20;;;;;;;20.09;33.84;101471.48;1820493;78;20888;-87
2022/09/06 11:02:31;;;;;;;1.62;0.20;;;;;;;19.96;34.02;101472.67;1822348;78;20928;-87
2022/09/06 11:05:03;;;;;;;0.40;0.28;;;;;;;19.73;34.38;101472.83;1809024;78;20935;-86
2022/09/06 11:07:34;;;;;;;4.00;3.12;;;;;;;19.55;34.45;101468.55;1809188;78;20919;-88
2022/09/06 11:10:15;;;;;;;1.70;0.42;;;;;;;19.43;34.88;101469.58;1803451;78;21176;-86
2022/09/06 11:12:59;;;;;;;30.62;27.20;;;;;;;19.39;35.68;101466.34;1824127;78;20935;-87
2022/09/06 11:15:28;;;;;;;;;;;;;;;19.40;35.32;101467.19;1824884;78;21010;-84
2022/09/06 11:18:17;;;;;;;2.15;1.40;;;;;;;19.31;35.47;101461.31;1814978;78;20102;-86
2022/09/06 11:21:24;;;;;;;4.12;3.25;;;;;;;19.25;35.81;101457.33;1805076;78;21582;-86
2022/09/06 11:23:54;;;;;;;1.25;0.95;;;;;;;19.25;36.32;101456.87;1818475;78;21239;-87
2022/09/06 11:26:47;;;;;;;3.22;2.08;;;;;;;19.34;35.84;101448.61;1814442;78;20915;-85
2022/09/06 11:29:28;;;;;;;4.22;2.42;;;;;;;19.58;35.59;101451.48;1806530;78;20919;-86
2022/09/06 11:32:01;;;;;;;0.62;0.40;;;;;;;19.87;35.32;101458.34;1813631;78;20947;-86
2022/09/06 11:34:33;;;;;;;0.53;0.45;;;;;;;20.08;34.54;101456.48;1824139;77;20825;-86
2022/09/06 11:37:02;;;;;;;1.60;1.30;;;;;;;20.18;34.48;101450.36;1816578;78;21129;-87
2022/09/06 11:39:38;;;;;;;1.37;0.62;;;;;;;20.19;34.13;101455.56;1817910;78;20899;-86
2022/09/06 11:42:09;;;;;;;0.28;0.28;;;;;;;20.16;34.56;101452.30;1818342;78;20958;-86
2022/09/06 11:44:55;;;;;;;0.68;0.45;;;;;;;20.11;34.87;101458.04;1801468;78;20947;-89
2022/09/06 11:47:44;;;;;;;0.42;0.42;;;;;;;20.01;34.83;101461.13;1813288;78;20887;-86